sensor_id;sensor_type;location;lat;lon;timestamp;pressure;altitude;pressure_sealevel;temperature;humidity
4617;BME280;2321;42.704;23.384;2022-07-05T00:01:09;95581.13;;;23.12;nan
4617;BME280;2321;42.704;23.384;2022-07-05T00:03:36;95577.88;;;23.10;nan
4617;BME280;2321;42.704;23.384;2022-07-05T00:06:03;95572.16;;;23.06;nan
4617;BME280;2321;42.704;23.384;2022-07-05T00:08:30;95580.31;;;23.06;nan
4617;BME280;2321;42.704;23.384;2022-07-05T00:10:57;95574.88;;;23.01;nan
4617;BME280;2321;42.704;23.384;2022-07-05T00:13:24;95570.53;;;22.90;nan
4617;BME280;2321;42.704;23.384;2022-07-05T00:15:51;95577.00;;;22.83;nan
4617;BME280;2321;42.704;23.384;2022-07-05T00:18:19;95573.72;;;22.76;nan
4617;BME280;2321;42.704;23.384;2022-07-05T00:20:46;95573.19;;;22.79;nan
4617;BME280;2321;42.704;23.384;2022-07-05T00:23:13;95575.91;;;22.79;nan
4617;BME280;2321;42.704;23.384;2022-07-05T00:25:40;95570.75;;;22.78;nan
4617;BME280;2321;42.704;23.384;2022-07-05T00:28:07;95575.09;;;22.79;nan
4617;BME280;2321;42.704;23.384;2022-07-05T00:30:34;95563.97;;;22.75;nan
4617;BME280;2321;42.704;23.384;2022-07-05T00:33:01;95569.06;;;22.71;nan
4617;BME280;2321;42.704;23.384;2022-07-05T00:35:29;95552.78;;;22.71;nan
4617;BME280;2321;42.704;23.384;2022-07-05T00:37:56;95561.19;;;22.64;nan
4617;BME280;2321;42.704;23.384;2022-07-05T00:40:23;95545.13;;;22.58;nan
4617;BME280;2321;42.704;23.384;2022-07-05T00:42:50;95557.63;;;22.53;nan
4617;BME280;2321;42.704;23.384;2022-07-05T00:45:17;95564.38;;;22.51;nan
4617;BME280;2321;42.704;23.384;2022-07-05T00:47:44;95558.94;;;22.46;nan
4617;BME280;2321;42.704;23.384;2022-07-05T00:50:10;95560.56;;;22.41;nan
4617;BME280;2321;42.704;23.384;2022-07-05T00:52:39;95567.03;;;22.35;nan
4617;BME280;2321;42.704;23.384;2022-07-05T00:55:07;95554.03;;;22.37;nan
4617;BME280;2321;42.704;23.384;2022-07-05T00:57:35;95548.84;;;22.36;nan
4617;BME280;2321;42.704;23.384;2022-07-05T01:00:03;95546.13;;;22.30;nan
4617;BME280;2321;42.704;23.384;2022-07-05T01:02:30;95548.00;;;22.25;nan
4617;BME280;2321;42.704;23.384;2022-07-05T01:04:57;95554.47;;;22.18;nan
4617;BME280;2321;42.704;23.384;2022-07-05T01:07:24;95558.00;;;22.14;nan
4617;BME280;2321;42.704;23.384;2022-07-05T01:09:52;95554.69;;;22.12;nan
4617;BME280;2321;42.704;23.384;2022-07-05T01:12:19;95549.81;;;22.08;nan
4617;BME280;2321;42.704;23.384;2022-07-05T01:14:47;95562.50;;;22.03;nan
4617;BME280;2321;42.704;23.384;2022-07-05T01:17:15;95562.00;;;22.06;nan
4617;BME280;2321;42.704;23.384;2022-07-05T01:19:42;95566.56;;;22.00;nan
4617;BME280;2321;42.704;23.384;2022-07-05T01:22:13;95571.16;;;21.94;nan
4617;BME280;2321;42.704;23.384;2022-07-05T01:24:44;95568.97;;;21.96;nan
4617;BME280;2321;42.704;23.384;2022-07-05T01:27:11;95567.91;;;21.97;nan
4617;BME280;2321;42.704;23.384;2022-07-05T01:29:38;95560.59;;;21.98;nan
4617;BME280;2321;42.704;23.384;2022-07-05T01:32:06;95565.22;;;21.97;nan
4617;BME280;2321;42.704;23.384;2022-07-05T01:34:37;95570.34;;;21.99;nan
4617;BME280;2321;42.704;23.384;2022-07-05T01:37:05;95571.41;;;21.93;nan
4617;BME280;2321;42.704;23.384;2022-07-05T01:39:32;95564.84;;;21.88;nan
4617;BME280;2321;42.704;23.384;2022-07-05T01:42:01;95568.38;;;21.89;nan
4617;BME280;2321;42.704;23.384;2022-07-05T01:44:28;95563.25;;;21.93;nan
4617;BME280;2321;42.704;23.384;2022-07-05T01:46:58;95558.66;;;21.93;nan
4617;BME280;2321;42.704;23.384;2022-07-05T01:49:31;95566.19;;;21.86;nan
4617;BME280;2321;42.704;23.384;2022-07-05T01:52:04;95568.06;;;21.80;nan
4617;BME280;2321;42.704;23.384;2022-07-05T01:54:34;95568.59;;;21.82;nan
4617;BME280;2321;42.704;23.384;2022-07-05T01:57:04;95581.03;;;21.78;nan
4617;BME280;2321;42.704;23.384;2022-07-05T01:59:32;95578.53;;;21.71;nan
4617;BME280;2321;42.704;23.384;2022-07-05T02:01:59;95569.38;;;21.77;nan
4617;BME280;2321;42.704;23.384;2022-07-05T02:04:27;95567.19;;;21.74;nan
4617;BME280;2321;42.704;23.384;2022-07-05T02:06:55;95567.75;;;21.76;nan
4617;BME280;2321;42.704;23.384;2022-07-05T02:09:22;95566.09;;;21.75;nan
4617;BME280;2321;42.704;23.384;2022-07-05T02:11:48;95557.31;;;21.58;nan
4617;BME280;2321;42.704;23.384;2022-07-05T02:14:17;95561.41;;;21.60;nan
4617;BME280;2321;42.704;23.384;2022-07-05T02:16:44;95561.66;;;21.59;nan
4617;BME280;2321;42.704;23.384;2022-07-05T02:19:11;95571.72;;;21.63;nan
4617;BME280;2321;42.704;23.384;2022-07-05T02:21:37;95567.41;;;21.68;nan
4617;BME280;2321;42.704;23.384;2022-07-05T02:24:05;95567.88;;;21.59;nan
4617;BME280;2321;42.704;23.384;2022-07-05T02:26:32;95567.81;;;21.49;nan
4617;BME280;2321;42.704;23.384;2022-07-05T02:29:00;95571.28;;;21.44;nan
4617;BME280;2321;42.704;23.384;2022-07-05T02:31:29;95572.06;;;21.39;nan
4617;BME280;2321;42.704;23.384;2022-07-05T02:33:56;95571.53;;;21.37;nan
4617;BME280;2321;42.704;23.384;2022-07-05T02:36:23;95582.06;;;21.39;nan
4617;BME280;2321;42.704;23.384;2022-07-05T02:38:50;95581.47;;;21.31;nan
4617;BME280;2321;42.704;23.384;2022-07-05T02:41:17;95571.44;;;21.32;nan
4617;BME280;2321;42.704;23.384;2022-07-05T02:43:44;95576.03;;;21.31;nan
4617;BME280;2321;42.704;23.384;2022-07-05T02:46:11;95581.47;;;21.31;nan
4617;BME280;2321;42.704;23.384;2022-07-05T02:48:40;95578.47;;;21.28;nan
4617;BME280;2321;42.704;23.384;2022-07-05T02:51:06;95585.22;;;21.25;nan
4617;BME280;2321;42.704;23.384;2022-07-05T02:53:33;95586.59;;;21.28;nan
4617;BME280;2321;42.704;23.384;2022-07-05T02:56:00;95588.47;;;21.27;nan
4617;BME280;2321;42.704;23.384;2022-07-05T02:58:27;95579.03;;;21.30;nan
4617;BME280;2321;42.704;23.384;2022-07-05T03:00:54;95580.25;;;21.17;nan
4617;BME280;2321;42.704;23.384;2022-07-05T03:03:21;95590.47;;;21.09;nan
4617;BME280;2321;42.704;23.384;2022-07-05T03:05:49;95587.47;;;21.06;nan
4617;BME280;2321;42.704;23.384;2022-07-05T03:08:16;95586.06;;;21.03;nan
4617;BME280;2321;42.704;23.384;2022-07-05T03:10:43;95578.56;;;21.10;nan
4617;BME280;2321;42.704;23.384;2022-07-05T03:13:10;95585.84;;;21.10;nan
4617;BME280;2321;42.704;23.384;2022-07-05T03:15:37;95580.72;;;21.08;nan
4617;BME280;2321;42.704;23.384;2022-07-05T03:18:04;95578.84;;;21.09;nan
4617;BME280;2321;42.704;23.384;2022-07-05T03:20:31;95581.16;;;21.00;nan
4617;BME280;2321;42.704;23.384;2022-07-05T03:22:59;95581.84;;;20.90;nan
4617;BME280;2321;42.704;23.384;2022-07-05T03:25:26;95591.09;;;20.94;nan
4617;BME280;2321;42.704;23.384;2022-07-05T03:27:53;95589.66;;;20.86;nan
4617;BME280;2321;42.704;23.384;2022-07-05T03:30:20;95587.41;;;20.78;nan
4617;BME280;2321;42.704;23.384;2022-07-05T03:32:48;95591.13;;;20.72;nan
4617;BME280;2321;42.704;23.384;2022-07-05T03:35:16;95584.16;;;20.76;nan
4617;BME280;2321;42.704;23.384;2022-07-05T03:37:42;95583.88;;;20.77;nan
4617;BME280;2321;42.704;23.384;2022-07-05T03:40:11;95580.66;;;20.81;nan
4617;BME280;2321;42.704;23.384;2022-07-05T03:42:38;95585.25;;;20.80;nan
4617;BME280;2321;42.704;23.384;2022-07-05T03:45:05;95588.28;;;20.84;nan
4617;BME280;2321;42.704;23.384;2022-07-05T03:47:32;95571.84;;;20.90;nan
4617;BME280;2321;42.704;23.384;2022-07-05T03:49:59;95581.53;;;20.86;nan
4617;BME280;2321;42.704;23.384;2022-07-05T03:54:53;95583.94;;;20.83;nan
4617;BME280;2321;42.704;23.384;2022-07-05T03:57:21;95571.41;;;20.76;nan
4617;BME280;2321;42.704;23.384;2022-07-05T03:59:48;95567.84;;;20.71;nan
4617;BME280;2321;42.704;23.384;2022-07-05T04:02:15;95568.59;;;20.66;nan
4617;BME280;2321;42.704;23.384;2022-07-05T04:04:42;95565.94;;;20.71;nan
4617;BME280;2321;42.704;23.384;2022-07-05T04:07:09;95566.00;;;20.76;nan
4617;BME280;2321;42.704;23.384;2022-07-05T04:09:36;95569.91;;;20.86;nan
4617;BME280;2321;42.704;23.384;2022-07-05T04:12:04;95571.34;;;20.94;nan
4617;BME280;2321;42.704;23.384;2022-07-05T04:14:32;95577.88;;;20.98;nan
4617;BME280;2321;42.704;23.384;2022-07-05T04:16:59;95580.00;;;20.96;nan
4617;BME280;2321;42.704;23.384;2022-07-05T04:19:26;95574.09;;;20.99;nan
4617;BME280;2321;42.704;23.384;2022-07-05T04:21:53;95580.97;;;21.07;nan
4617;BME280;2321;42.704;23.384;2022-07-05T04:24:20;95583.66;;;21.07;nan
4617;BME280;2321;42.704;23.384;2022-07-05T04:26:47;95586.75;;;21.16;nan
4617;BME280;2321;42.704;23.384;2022-07-05T04:29:14;95583.31;;;21.26;nan
4617;BME280;2321;42.704;23.384;2022-07-05T04:31:42;95580.41;;;21.32;nan
4617;BME280;2321;42.704;23.384;2022-07-05T04:34:09;95578.13;;;21.19;nan
4617;BME280;2321;42.704;23.384;2022-07-05T04:36:36;95580.72;;;21.08;nan
4617;BME280;2321;42.704;23.384;2022-07-05T04:39:06;95581.84;;;21.13;nan
4617;BME280;2321;42.704;23.384;2022-07-05T04:41:33;95578.38;;;21.17;nan
4617;BME280;2321;42.704;23.384;2022-07-05T04:44:00;95581.16;;;21.00;nan
4617;BME280;2321;42.704;23.384;2022-07-05T04:46:27;95590.53;;;20.92;nan
4617;BME280;2321;42.704;23.384;2022-07-05T04:48:55;95574.78;;;20.89;nan
4617;BME280;2321;42.704;23.384;2022-07-05T04:51:22;95577.78;;;20.87;nan
4617;BME280;2321;42.704;23.384;2022-07-05T04:53:49;95571.03;;;20.90;nan
4617;BME280;2321;42.704;23.384;2022-07-05T04:56:16;95580.56;;;20.98;nan
4617;BME280;2321;42.704;23.384;2022-07-05T04:58:43;95583.66;;;21.07;nan
4617;BME280;2321;42.704;23.384;2022-07-05T05:01:10;95585.41;;;21.18;nan
4617;BME280;2321;42.704;23.384;2022-07-05T05:03:37;95576.53;;;21.23;nan
4617;BME280;2321;42.704;23.384;2022-07-05T05:06:05;95587.16;;;21.30;nan
4617;BME280;2321;42.704;23.384;2022-07-05T05:08:32;95588.56;;;21.38;nan
4617;BME280;2321;42.704;23.384;2022-07-05T05:10:59;95587.09;;;21.52;nan
4617;BME280;2321;42.704;23.384;2022-07-05T05:13:26;95597.44;;;21.61;nan
4617;BME280;2321;42.704;23.384;2022-07-05T05:15:53;95584.25;;;21.75;nan
4617;BME280;2321;42.704;23.384;2022-07-05T05:18:19;95583.53;;;21.85;nan
4617;BME280;2321;42.704;23.384;2022-07-05T05:20:52;95595.25;;;21.96;nan
4617;BME280;2321;42.704;23.384;2022-07-05T05:23:20;95591.03;;;22.11;nan
4617;BME280;2321;42.704;23.384;2022-07-05T05:25:47;95598.06;;;22.12;nan
4617;BME280;2321;42.704;23.384;2022-07-05T05:28:14;95589.25;;;22.32;nan
4617;BME280;2321;42.704;23.384;2022-07-05T05:30:41;95586.03;;;22.35;nan
4617;BME280;2321;42.704;23.384;2022-07-05T05:33:08;95585.53;;;22.49;nan
4617;BME280;2321;42.704;23.384;2022-07-05T05:35:35;95592.91;;;22.59;nan
4617;BME280;2321;42.704;23.384;2022-07-05T05:38:02;95585.09;;;22.73;nan
4617;BME280;2321;42.704;23.384;2022-07-05T05:40:31;95593.84;;;22.80;nan
4617;BME280;2321;42.704;23.384;2022-07-05T05:42:58;95581.09;;;22.81;nan
4617;BME280;2321;42.704;23.384;2022-07-05T05:45:25;95587.78;;;22.62;nan
4617;BME280;2321;42.704;23.384;2022-07-05T05:47:54;95584.63;;;22.87;nan
4617;BME280;2321;42.704;23.384;2022-07-05T05:50:23;95586.00;;;22.94;nan
4617;BME280;2321;42.704;23.384;2022-07-05T05:52:50;95598.50;;;23.01;nan
4617;BME280;2321;42.704;23.384;2022-07-05T05:55:18;95602.03;;;22.96;nan
4617;BME280;2321;42.704;23.384;2022-07-05T05:57:47;95595.50;;;22.97;nan
4617;BME280;2321;42.704;23.384;2022-07-05T06:00:16;95595.22;;;22.93;nan
4617;BME280;2321;42.704;23.384;2022-07-05T06:02:44;95595.00;;;23.16;nan
4617;BME280;2321;42.704;23.384;2022-07-05T06:05:11;95598.00;;;23.20;nan
4617;BME280;2321;42.704;23.384;2022-07-05T06:07:49;95592.59;;;23.30;nan
4617;BME280;2321;42.704;23.384;2022-07-05T06:10:18;95599.09;;;23.34;nan
4617;BME280;2321;42.704;23.384;2022-07-05T06:12:48;95600.19;;;23.33;nan
4617;BME280;2321;42.704;23.384;2022-07-05T06:15:15;95599.38;;;23.43;nan
4617;BME280;2321;42.704;23.384;2022-07-05T06:17:42;95590.44;;;23.48;nan
4617;BME280;2321;42.704;23.384;2022-07-05T06:20:13;95600.53;;;23.63;nan
4617;BME280;2321;42.704;23.384;2022-07-05T06:22:40;95600.25;;;23.75;nan
4617;BME280;2321;42.704;23.384;2022-07-05T06:25:07;95601.59;;;23.88;nan
4617;BME280;2321;42.704;23.384;2022-07-05T06:27:38;95590.72;;;23.88;nan
4617;BME280;2321;42.704;23.384;2022-07-05T06:30:08;95600.50;;;24.10;nan
4617;BME280;2321;42.704;23.384;2022-07-05T06:32:36;95597.47;;;24.17;nan
4617;BME280;2321;42.704;23.384;2022-07-05T06:35:04;95602.66;;;24.34;nan
4617;BME280;2321;42.704;23.384;2022-07-05T06:37:40;95604.22;;;24.46;nan
4617;BME280;2321;42.704;23.384;2022-07-05T06:40:10;95602.84;;;24.54;nan
4617;BME280;2321;42.704;23.384;2022-07-05T06:42:37;95598.44;;;24.63;nan
4617;BME280;2321;42.704;23.384;2022-07-05T06:45:07;95596.53;;;24.64;nan
4617;BME280;2321;42.704;23.384;2022-07-05T06:47:34;95585.06;;;24.72;nan
4617;BME280;2321;42.704;23.384;2022-07-05T06:50:01;95596.19;;;24.81;nan
4617;BME280;2321;42.704;23.384;2022-07-05T06:52:29;95599.19;;;24.85;nan
4617;BME280;2321;42.704;23.384;2022-07-05T06:54:57;95584.13;;;24.98;nan
4617;BME280;2321;42.704;23.384;2022-07-05T06:57:23;95581.88;;;25.16;nan
4617;BME280;2321;42.704;23.384;2022-07-05T06:59:51;95565.97;;;25.33;nan
4617;BME280;2321;42.704;23.384;2022-07-05T07:02:20;95578.09;;;25.52;nan
4617;BME280;2321;42.704;23.384;2022-07-05T07:04:47;95587.84;;;25.58;nan
4617;BME280;2321;42.704;23.384;2022-07-05T07:07:14;95570.03;;;25.71;nan
4617;BME280;2321;42.704;23.384;2022-07-05T07:10:00;95570.44;;;25.89;nan
4617;BME280;2321;42.704;23.384;2022-07-05T07:12:27;95580.69;;;26.03;nan
4617;BME280;2321;42.704;23.384;2022-07-05T07:14:55;95576.47;;;26.16;nan
4617;BME280;2321;42.704;23.384;2022-07-05T07:17:23;95575.03;;;26.24;nan
4617;BME280;2321;42.704;23.384;2022-07-05T07:19:51;95581.34;;;26.43;nan
4617;BME280;2321;42.704;23.384;2022-07-05T07:22:18;95572.31;;;26.48;nan
4617;BME280;2321;42.704;23.384;2022-07-05T07:24:45;95575.72;;;26.59;nan
4617;BME280;2321;42.704;23.384;2022-07-05T07:27:12;95581.94;;;26.65;nan
4617;BME280;2321;42.704;23.384;2022-07-05T07:29:39;95579.91;;;26.76;nan
4617;BME280;2321;42.704;23.384;2022-07-05T07:32:07;95581.75;;;26.81;nan
4617;BME280;2321;42.704;23.384;2022-07-05T07:34:36;95577.56;;;26.89;nan
4617;BME280;2321;42.704;23.384;2022-07-05T07:37:04;95581.25;;;26.98;nan
4617;BME280;2321;42.704;23.384;2022-07-05T07:39:31;95576.94;;;27.16;nan
4617;BME280;2321;42.704;23.384;2022-07-05T07:41:58;95570.88;;;27.19;nan
4617;BME280;2321;42.704;23.384;2022-07-05T07:44:25;95567.75;;;27.26;nan
4617;BME280;2321;42.704;23.384;2022-07-05T07:46:52;95573.91;;;27.37;nan
4617;BME280;2321;42.704;23.384;2022-07-05T07:49:19;95575.13;;;27.45;nan
4617;BME280;2321;42.704;23.384;2022-07-05T07:51:47;95569.00;;;27.54;nan
4617;BME280;2321;42.704;23.384;2022-07-05T07:54:14;95564.41;;;27.68;nan
4617;BME280;2321;42.704;23.384;2022-07-05T07:56:41;95578.69;;;27.79;nan
4617;BME280;2321;42.704;23.384;2022-07-05T07:59:08;95573.09;;;27.90;nan
4617;BME280;2321;42.704;23.384;2022-07-05T08:01:35;95574.19;;;27.89;nan
4617;BME280;2321;42.704;23.384;2022-07-05T08:04:02;95574.63;;;27.77;nan
4617;BME280;2321;42.704;23.384;2022-07-05T08:06:29;95567.75;;;27.79;nan
4617;BME280;2321;42.704;23.384;2022-07-05T08:08:57;95574.28;;;27.83;nan
4617;BME280;2321;42.704;23.384;2022-07-05T08:11:24;95577.03;;;27.98;nan
4617;BME280;2321;42.704;23.384;2022-07-05T08:13:51;95568.88;;;28.12;nan
4617;BME280;2321;42.704;23.384;2022-07-05T08:16:18;95564.44;;;28.30;nan
4617;BME280;2321;42.704;23.384;2022-07-05T08:18:45;95571.53;;;28.45;nan
4617;BME280;2321;42.704;23.384;2022-07-05T08:21:29;95560.78;;;28.63;nan
4617;BME280;2321;42.704;23.384;2022-07-05T08:24:03;95563.63;;;28.72;nan
4617;BME280;2321;42.704;23.384;2022-07-05T08:26:31;95559.25;;;28.85;nan
4617;BME280;2321;42.704;23.384;2022-07-05T08:28:58;95557.47;;;29.03;nan
4617;BME280;2321;42.704;23.384;2022-07-05T08:31:25;95561.84;;;29.19;nan
4617;BME280;2321;42.704;23.384;2022-07-05T08:33:53;95558.97;;;29.24;nan
4617;BME280;2321;42.704;23.384;2022-07-05T08:36:20;95550.59;;;29.29;nan
4617;BME280;2321;42.704;23.384;2022-07-05T08:38:47;95547.63;;;29.40;nan
4617;BME280;2321;42.704;23.384;2022-07-05T08:41:19;95538.53;;;29.53;nan
4617;BME280;2321;42.704;23.384;2022-07-05T08:43:46;95546.38;;;29.69;nan
4617;BME280;2321;42.704;23.384;2022-07-05T08:46:15;95537.50;;;29.72;nan
4617;BME280;2321;42.704;23.384;2022-07-05T08:48:43;95544.41;;;29.84;nan
4617;BME280;2321;42.704;23.384;2022-07-05T08:51:11;95535.59;;;29.96;nan
4617;BME280;2321;42.704;23.384;2022-07-05T08:53:39;95545.78;;;30.04;nan
4617;BME280;2321;42.704;23.384;2022-07-05T08:56:08;95536.47;;;30.14;nan
4617;BME280;2321;42.704;23.384;2022-07-05T08:58:37;95531.97;;;30.18;nan
4617;BME280;2321;42.704;23.384;2022-07-05T09:01:06;95529.25;;;30.27;nan
4617;BME280;2321;42.704;23.384;2022-07-05T09:03:34;95527.66;;;30.35;nan
4617;BME280;2321;42.704;23.384;2022-07-05T09:06:07;95527.88;;;30.39;nan
4617;BME280;2321;42.704;23.384;2022-07-05T09:08:36;95523.03;;;30.44;nan
4617;BME280;2321;42.704;23.384;2022-07-05T09:11:06;95518.50;;;30.49;nan
4617;BME280;2321;42.704;23.384;2022-07-05T09:13:34;95512.38;;;30.52;nan
4617;BME280;2321;42.704;23.384;2022-07-05T09:16:04;95518.41;;;30.72;nan
4617;BME280;2321;42.704;23.384;2022-07-05T09:18:44;95513.28;;;30.88;nan
4617;BME280;2321;42.704;23.384;2022-07-05T09:21:13;95508.44;;;31.03;nan
4617;BME280;2321;42.704;23.384;2022-07-05T09:23:40;95505.34;;;30.95;nan
4617;BME280;2321;42.704;23.384;2022-07-05T09:26:08;95506.34;;;30.99;nan
4617;BME280;2321;42.704;23.384;2022-07-05T09:28:34;95502.91;;;30.94;nan
4617;BME280;2321;42.704;23.384;2022-07-05T09:31:03;95496.47;;;31.07;nan
4617;BME280;2321;42.704;23.384;2022-07-05T09:33:30;95490.31;;;31.19;nan
4617;BME280;2321;42.704;23.384;2022-07-05T09:35:57;95492.25;;;31.19;nan
4617;BME280;2321;42.704;23.384;2022-07-05T09:38:25;95492.91;;;31.34;nan
4617;BME280;2321;42.704;23.384;2022-07-05T09:40:53;95499.69;;;31.45;nan
4617;BME280;2321;42.704;23.384;2022-07-05T09:43:21;95495.63;;;31.60;nan
4617;BME280;2321;42.704;23.384;2022-07-05T09:45:59;95486.69;;;31.72;nan
4617;BME280;2321;42.704;23.384;2022-07-05T09:48:29;95488.44;;;31.86;nan
4617;BME280;2321;42.704;23.384;2022-07-05T09:51:09;95479.81;;;31.96;nan
4617;BME280;2321;42.704;23.384;2022-07-05T09:53:47;95477.97;;;32.10;nan
4617;BME280;2321;42.704;23.384;2022-07-05T09:56:14;95477.50;;;32.16;nan
4617;BME280;2321;42.704;23.384;2022-07-05T09:58:41;95473.53;;;32.26;nan
4617;BME280;2321;42.704;23.384;2022-07-05T10:01:24;95470.09;;;32.38;nan
4617;BME280;2321;42.704;23.384;2022-07-05T10:03:54;95475.81;;;32.55;nan
4617;BME280;2321;42.704;23.384;2022-07-05T10:06:24;95467.97;;;32.66;nan
4617;BME280;2321;42.704;23.384;2022-07-05T10:08:52;95464.84;;;32.76;nan
4617;BME280;2321;42.704;23.384;2022-07-05T10:11:20;95466.25;;;32.82;nan
4617;BME280;2321;42.704;23.384;2022-07-05T10:13:48;95452.06;;;32.93;nan
4617;BME280;2321;42.704;23.384;2022-07-05T10:16:15;95460.41;;;33.05;nan
4617;BME280;2321;42.704;23.384;2022-07-05T10:18:43;95460.63;;;33.13;nan
4617;BME280;2321;42.704;23.384;2022-07-05T10:21:14;95454.81;;;33.14;nan
4617;BME280;2321;42.704;23.384;2022-07-05T10:23:43;95451.22;;;33.14;nan
4617;BME280;2321;42.704;23.384;2022-07-05T10:26:11;95456.66;;;33.23;nan
4617;BME280;2321;42.704;23.384;2022-07-05T10:28:40;95446.50;;;33.36;nan
4617;BME280;2321;42.704;23.384;2022-07-05T10:31:07;95438.47;;;33.43;nan
4617;BME280;2321;42.704;23.384;2022-07-05T10:33:35;95435.06;;;33.59;nan
4617;BME280;2321;42.704;23.384;2022-07-05T10:36:03;95438.88;;;33.67;nan
4617;BME280;2321;42.704;23.384;2022-07-05T10:38:35;95434.75;;;33.73;nan
4617;BME280;2321;42.704;23.384;2022-07-05T10:41:04;95422.66;;;33.78;nan
4617;BME280;2321;42.704;23.384;2022-07-05T10:43:32;95430.75;;;33.83;nan
4617;BME280;2321;42.704;23.384;2022-07-05T10:45:59;95425.78;;;33.89;nan
4617;BME280;2321;42.704;23.384;2022-07-05T10:48:28;95424.91;;;33.97;nan
4617;BME280;2321;42.704;23.384;2022-07-05T10:50:57;95426.38;;;34.07;nan
4617;BME280;2321;42.704;23.384;2022-07-05T10:53:25;95426.16;;;34.12;nan
4617;BME280;2321;42.704;23.384;2022-07-05T10:55:56;95425.09;;;34.17;nan
4617;BME280;2321;42.704;23.384;2022-07-05T10:58:29;95411.41;;;34.21;nan
4617;BME280;2321;42.704;23.384;2022-07-05T11:04:29;95417.75;;;34.21;nan
4617;BME280;2321;42.704;23.384;2022-07-05T11:06:58;95411.84;;;34.23;nan
4617;BME280;2321;42.704;23.384;2022-07-05T11:09:25;95403.09;;;34.33;nan
4617;BME280;2321;42.704;23.384;2022-07-05T11:12:20;95405.88;;;34.46;nan
4617;BME280;2321;42.704;23.384;2022-07-05T11:15:05;95412.78;;;34.52;nan
4617;BME280;2321;42.704;23.384;2022-07-05T11:17:34;95411.59;;;34.53;nan
4617;BME280;2321;42.704;23.384;2022-07-05T11:20:09;95405.16;;;34.62;nan
4617;BME280;2321;42.704;23.384;2022-07-05T11:22:38;95406.59;;;34.72;nan
4617;BME280;2321;42.704;23.384;2022-07-05T11:25:07;95393.81;;;34.79;nan
4617;BME280;2321;42.704;23.384;2022-07-05T11:27:37;95402.31;;;34.87;nan
4617;BME280;2321;42.704;23.384;2022-07-05T11:30:23;95401.41;;;34.83;nan
4617;BME280;2321;42.704;23.384;2022-07-05T11:32:50;95395.50;;;34.84;nan
4617;BME280;2321;42.704;23.384;2022-07-05T11:35:19;95393.25;;;34.74;nan
4617;BME280;2321;42.704;23.384;2022-07-05T11:38:04;95394.84;;;34.75;nan
4617;BME280;2321;42.704;23.384;2022-07-05T11:40:33;95380.25;;;34.74;nan
4617;BME280;2321;42.704;23.384;2022-07-05T11:43:02;95377.66;;;34.82;nan
4617;BME280;2321;42.704;23.384;2022-07-05T11:45:30;95382.47;;;34.85;nan
4617;BME280;2321;42.704;23.384;2022-07-05T11:47:57;95373.47;;;34.88;nan
4617;BME280;2321;42.704;23.384;2022-07-05T11:50:26;95369.88;;;35.00;nan
4617;BME280;2321;42.704;23.384;2022-07-05T11:52:53;95370.00;;;35.04;nan
4617;BME280;2321;42.704;23.384;2022-07-05T11:55:20;95367.66;;;35.06;nan
4617;BME280;2321;42.704;23.384;2022-07-05T11:57:49;95366.72;;;35.14;nan
4617;BME280;2321;42.704;23.384;2022-07-05T12:00:29;95367.00;;;35.25;nan
4617;BME280;2321;42.704;23.384;2022-07-05T12:02:57;95357.97;;;35.28;nan
4617;BME280;2321;42.704;23.384;2022-07-05T12:05:29;95360.03;;;35.31;nan
4617;BME280;2321;42.704;23.384;2022-07-05T12:07:56;95351.63;;;35.28;nan
4617;BME280;2321;42.704;23.384;2022-07-05T12:10:23;95353.44;;;35.20;nan
4617;BME280;2321;42.704;23.384;2022-07-05T12:13:08;95348.84;;;35.11;nan
4617;BME280;2321;42.704;23.384;2022-07-05T12:15:37;95344.38;;;35.07;nan
4617;BME280;2321;42.704;23.384;2022-07-05T12:18:05;95340.88;;;34.94;nan
4617;BME280;2321;42.704;23.384;2022-07-05T12:20:34;95334.50;;;34.77;nan
4617;BME280;2321;42.704;23.384;2022-07-05T12:23:01;95329.91;;;34.68;nan
4617;BME280;2321;42.704;23.384;2022-07-05T12:25:29;95330.72;;;34.69;nan
4617;BME280;2321;42.704;23.384;2022-07-05T12:27:57;95329.19;;;34.72;nan
4617;BME280;2321;42.704;23.384;2022-07-05T12:30:27;95328.69;;;34.82;nan
4617;BME280;2321;42.704;23.384;2022-07-05T12:32:58;95329.81;;;34.94;nan
4617;BME280;2321;42.704;23.384;2022-07-05T12:35:43;95332.34;;;34.99;nan
4617;BME280;2321;42.704;23.384;2022-07-05T12:38:11;95331.72;;;35.06;nan
4617;BME280;2321;42.704;23.384;2022-07-05T12:40:41;95333.59;;;35.18;nan
4617;BME280;2321;42.704;23.384;2022-07-05T12:43:09;95326.63;;;35.24;nan
4617;BME280;2321;42.704;23.384;2022-07-05T12:45:36;95326.22;;;35.38;nan
4617;BME280;2321;42.704;23.384;2022-07-05T12:48:07;95318.47;;;35.44;nan
4617;BME280;2321;42.704;23.384;2022-07-05T12:50:45;95320.88;;;35.29;nan
4617;BME280;2321;42.704;23.384;2022-07-05T12:53:13;95307.63;;;35.06;nan
4617;BME280;2321;42.704;23.384;2022-07-05T12:55:59;95317.34;;;35.00;nan
4617;BME280;2321;42.704;23.384;2022-07-05T12:58:48;95306.31;;;35.16;nan
4617;BME280;2321;42.704;23.384;2022-07-05T13:01:20;95301.31;;;35.22;nan
4617;BME280;2321;42.704;23.384;2022-07-05T13:04:03;95292.81;;;35.31;nan
4617;BME280;2321;42.704;23.384;2022-07-05T13:06:55;95296.59;;;35.39;nan
4617;BME280;2321;42.704;23.384;2022-07-05T13:09:31;95293.72;;;35.35;nan
4617;BME280;2321;42.704;23.384;2022-07-05T13:12:08;95297.66;;;35.34;nan
4617;BME280;2321;42.704;23.384;2022-07-05T13:14:36;95295.53;;;35.43;nan
4617;BME280;2321;42.704;23.384;2022-07-05T13:17:04;95291.75;;;35.52;nan
4617;BME280;2321;42.704;23.384;2022-07-05T13:19:33;95287.13;;;35.56;nan
4617;BME280;2321;42.704;23.384;2022-07-05T13:22:00;95287.84;;;35.53;nan
4617;BME280;2321;42.704;23.384;2022-07-05T13:24:27;95291.56;;;35.61;nan
4617;BME280;2321;42.704;23.384;2022-07-05T13:26:55;95279.25;;;35.58;nan
4617;BME280;2321;42.704;23.384;2022-07-05T13:29:22;95279.16;;;35.54;nan
4617;BME280;2321;42.704;23.384;2022-07-05T13:31:49;95278.66;;;35.49;nan
4617;BME280;2321;42.704;23.384;2022-07-05T13:34:16;95272.25;;;35.45;nan
4617;BME280;2321;42.704;23.384;2022-07-05T13:36:44;95268.22;;;35.42;nan
4617;BME280;2321;42.704;23.384;2022-07-05T13:39:11;95267.50;;;35.45;nan
4617;BME280;2321;42.704;23.384;2022-07-05T13:41:38;95254.63;;;35.53;nan
4617;BME280;2321;42.704;23.384;2022-07-05T13:44:05;95268.91;;;35.55;nan
4617;BME280;2321;42.704;23.384;2022-07-05T13:46:32;95270.69;;;35.63;nan